createdAt,value
2018-12-23T00:02:25.560Z,8.60
2018-12-23T00:04:53.857Z,6.30
2018-12-23T00:07:22.106Z,4.47
2018-12-23T00:09:50.368Z,4.20
2018-12-23T00:12:18.628Z,10.20
2018-12-23T00:14:46.879Z,6.63
2018-12-23T00:17:15.192Z,5.73
2018-12-23T00:19:43.452Z,4.60
2018-12-23T00:22:11.843Z,4.70
2018-12-23T00:24:40.076Z,4.90
2018-12-23T00:27:08.344Z,6.47
2018-12-23T00:29:36.624Z,11.07
2018-12-23T00:32:04.870Z,8.77
2018-12-23T00:34:33.119Z,5.20
2018-12-23T00:37:01.402Z,5.40
2018-12-23T00:39:29.771Z,4.53
2018-12-23T00:41:58.511Z,4.30
2018-12-23T00:44:26.761Z,8.20
2018-12-23T00:46:55.064Z,5.43
2018-12-23T00:49:23.342Z,6.37
2018-12-23T00:51:51.585Z,5.43
2018-12-23T00:54:19.849Z,11.13
2018-12-23T00:56:48.206Z,4.73
2018-12-23T00:59:16.501Z,4.40
2018-12-23T01:01:44.771Z,4.00
2018-12-23T01:04:12.993Z,4.10
2018-12-23T01:06:41.245Z,4.00
2018-12-23T01:09:09.466Z,5.50
2018-12-23T01:11:37.696Z,4.27
2018-12-23T01:14:05.947Z,7.63
2018-12-23T01:16:34.171Z,6.67
2018-12-23T01:19:02.437Z,4.37
2018-12-23T01:21:30.654Z,4.67
2018-12-23T01:23:58.939Z,5.00
2018-12-23T01:26:27.193Z,5.97
2018-12-23T01:28:55.560Z,6.50
2018-12-23T01:31:23.928Z,5.33
2018-12-23T01:33:52.139Z,6.03
2018-12-23T01:36:20.406Z,6.77
2018-12-23T01:38:48.660Z,8.87
2018-12-23T01:41:16.918Z,6.53
2018-12-23T01:43:49.256Z,8.03
2018-12-23T01:46:17.571Z,5.17
2018-12-23T01:48:45.776Z,11.53
2018-12-23T01:51:14.053Z,6.40
2018-12-23T01:53:42.436Z,6.93
2018-12-23T01:56:10.702Z,5.63
2018-12-23T01:58:39.043Z,9.93
2018-12-23T02:01:07.294Z,7.13
2018-12-23T02:03:35.750Z,5.53
2018-12-23T02:06:03.997Z,5.63
2018-12-23T02:08:32.208Z,5.70
2018-12-23T02:11:00.553Z,6.50
2018-12-23T02:13:28.832Z,6.00
2018-12-23T02:15:57.126Z,11.17
2018-12-23T02:18:25.426Z,9.53
2018-12-23T02:20:53.779Z,6.73
2018-12-23T02:23:22.036Z,6.63
2018-12-23T02:25:50.316Z,7.20
2018-12-23T02:28:18.542Z,6.13
2018-12-23T02:30:46.774Z,6.83
2018-12-23T02:33:15.041Z,7.07
2018-12-23T02:35:43.270Z,5.83
2018-12-23T02:38:11.507Z,6.13
2018-12-23T02:40:39.841Z,6.33
2018-12-23T02:43:08.171Z,5.67
2018-12-23T02:45:36.388Z,8.90
2018-12-23T02:48:04.720Z,7.93
2018-12-23T02:50:33.000Z,6.53
2018-12-23T02:53:01.267Z,6.77
2018-12-23T02:55:29.537Z,6.40
2018-12-23T02:57:57.800Z,6.20
2018-12-23T03:00:26.030Z,6.00
2018-12-23T03:02:54.254Z,5.97
2018-12-23T03:05:22.508Z,6.53
2018-12-23T03:07:50.695Z,5.67
2018-12-23T03:10:18.962Z,6.70
2018-12-23T03:12:47.180Z,6.10
2018-12-23T03:15:15.450Z,6.93
2018-12-23T03:17:43.705Z,6.43
2018-12-23T03:20:11.951Z,6.80
2018-12-23T03:22:40.178Z,7.07
2018-12-23T03:25:08.631Z,6.67
2018-12-23T03:27:37.026Z,8.10
2018-12-23T03:30:05.473Z,6.10
2018-12-23T03:32:33.821Z,7.50
2018-12-23T03:35:02.110Z,6.87
2018-12-23T03:37:30.339Z,6.87
2018-12-23T03:39:58.607Z,7.97
2018-12-23T03:42:26.862Z,6.43
2018-12-23T03:44:55.139Z,7.30
2018-12-23T03:47:23.383Z,6.63
2018-12-23T03:49:51.636Z,6.43
2018-12-23T03:52:19.873Z,7.00
2018-12-23T03:54:48.150Z,7.53
2018-12-23T03:57:16.453Z,6.33
2018-12-23T03:59:44.794Z,7.20
2018-12-23T04:02:13.047Z,7.43
2018-12-23T04:04:41.294Z,7.33
2018-12-23T04:07:09.638Z,7.10
2018-12-23T04:09:37.917Z,7.07
2018-12-23T04:12:06.147Z,7.27
2018-12-23T04:14:34.385Z,7.80
2018-12-23T04:17:02.619Z,7.73
2018-12-23T04:19:31.252Z,7.73
2018-12-23T04:21:59.494Z,7.70
2018-12-23T04:24:27.794Z,8.83
2018-12-23T04:26:56.067Z,7.43
2018-12-23T04:29:24.329Z,8.63
2018-12-23T04:31:52.582Z,7.13
2018-12-23T04:37:31.969Z,7.90
2018-12-23T04:40:01.464Z,7.07
2018-12-23T04:42:31.102Z,7.17
2018-12-23T04:45:00.981Z,7.43
2018-12-23T04:47:30.750Z,7.03
2018-12-23T04:50:00.413Z,7.53
2018-12-23T04:52:29.735Z,6.87
2018-12-23T04:54:59.729Z,7.20
2018-12-23T04:57:29.208Z,6.77
2018-12-23T04:59:59.037Z,7.20
2018-12-23T05:02:28.397Z,6.60
2018-12-23T05:04:57.792Z,7.07
2018-12-23T05:07:27.170Z,7.53
2018-12-23T05:09:56.603Z,6.80
2018-12-23T05:12:36.213Z,6.23
2018-12-23T05:15:05.921Z,6.37
2018-12-23T05:17:35.316Z,7.27
2018-12-23T05:20:04.893Z,7.47
2018-12-23T05:22:34.826Z,6.70
2018-12-23T05:25:04.694Z,7.27
2018-12-23T05:27:34.080Z,5.20
2018-12-23T05:30:03.467Z,6.63
2018-12-23T05:32:32.895Z,6.73
2018-12-23T05:35:02.407Z,6.50
2018-12-23T05:37:31.770Z,6.13
2018-12-23T05:40:01.176Z,6.63
2018-12-23T05:42:30.916Z,6.83
2018-12-23T05:45:00.885Z,6.10
2018-12-23T05:47:30.284Z,6.07
2018-12-23T05:49:59.685Z,6.23
2018-12-23T05:52:29.058Z,5.37
2018-12-23T05:54:58.463Z,5.93
2018-12-23T05:57:27.929Z,6.13
2018-12-23T05:59:57.209Z,6.27
2018-12-23T06:02:26.506Z,6.57
2018-12-23T06:04:56.103Z,5.53
2018-12-23T06:07:25.830Z,5.37
2018-12-23T06:09:55.570Z,6.07
2018-12-23T06:12:25.383Z,7.63
2018-12-23T06:14:55.220Z,6.40
2018-12-23T06:17:24.660Z,5.77
2018-12-23T06:19:54.124Z,5.73
2018-12-23T06:22:23.772Z,4.83
2018-12-23T06:24:53.141Z,5.97
2018-12-23T06:27:22.899Z,5.60
2018-12-23T06:29:52.410Z,5.83
2018-12-23T06:32:21.791Z,5.60
2018-12-23T06:34:51.861Z,5.20
2018-12-23T06:37:21.161Z,5.13
2018-12-23T06:39:50.432Z,6.00
2018-12-23T06:42:20.497Z,5.20
2018-12-23T06:44:49.836Z,5.43
2018-12-23T06:47:19.136Z,5.53
2018-12-23T06:49:49.589Z,8.57
2018-12-23T06:52:19.004Z,4.40
2018-12-23T06:54:50.676Z,5.30
2018-12-23T06:57:19.985Z,6.07
2018-12-23T06:59:50.157Z,5.47
2018-12-23T07:02:19.593Z,5.97
2018-12-23T07:04:49.264Z,4.97
2018-12-23T07:07:19.026Z,4.60
2018-12-23T07:09:48.584Z,4.57
2018-12-23T07:12:18.016Z,4.80
2018-12-23T07:14:47.372Z,4.40
2018-12-23T07:17:16.799Z,4.07
2018-12-23T07:19:46.582Z,4.87
2018-12-23T07:22:15.952Z,4.90
2018-12-23T07:24:45.270Z,5.60
2018-12-23T07:27:14.580Z,4.20
2018-12-23T07:29:44.006Z,4.57
2018-12-23T07:32:13.715Z,4.50
2018-12-23T07:34:43.104Z,3.47
2018-12-23T07:37:13.027Z,4.17
2018-12-23T07:39:42.851Z,5.10
2018-12-23T07:42:12.656Z,3.90
2018-12-23T07:44:42.570Z,4.07
2018-12-23T07:47:11.874Z,4.10
2018-12-23T07:49:41.391Z,3.40
2018-12-23T07:52:12.253Z,3.60
2018-12-23T07:54:41.642Z,4.07
2018-12-23T07:57:11.002Z,3.70
2018-12-23T07:59:40.691Z,3.90
2018-12-23T08:02:10.165Z,3.57
2018-12-23T08:04:39.924Z,3.80
2018-12-23T08:07:10.066Z,3.53
2018-12-23T08:09:39.443Z,3.40
2018-12-23T08:12:09.534Z,4.20
2018-12-23T08:14:38.903Z,3.60
2018-12-23T08:17:08.598Z,3.17
2018-12-23T08:19:38.353Z,3.27
2018-12-23T08:22:07.720Z,3.33
2018-12-23T08:24:37.091Z,3.27
2018-12-23T08:27:06.567Z,3.33
2018-12-23T08:29:35.958Z,3.83
2018-12-23T08:32:06.026Z,3.17
2018-12-23T08:34:35.727Z,4.10
2018-12-23T08:37:05.234Z,3.63
2018-12-23T08:39:36.215Z,3.23
2018-12-23T08:42:05.841Z,3.73
2018-12-23T08:44:35.254Z,2.97
2018-12-23T08:47:04.744Z,2.97
2018-12-23T08:49:34.061Z,2.97
2018-12-23T08:52:03.739Z,2.60
2018-12-23T08:54:33.233Z,2.60
2018-12-23T08:57:03.189Z,3.07
2018-12-23T08:59:32.723Z,2.50
2018-12-23T09:02:02.034Z,3.43
2018-12-23T09:04:31.767Z,2.63
2018-12-23T09:07:01.180Z,2.67
2018-12-23T09:09:30.976Z,3.33
2018-12-23T09:12:00.472Z,2.43
2018-12-23T09:14:29.940Z,3.03
2018-12-23T09:16:59.425Z,2.93
2018-12-23T09:19:28.832Z,2.50
2018-12-23T09:21:58.593Z,2.57
2018-12-23T09:24:28.448Z,2.67
2018-12-23T09:26:58.385Z,3.17
2018-12-23T09:29:28.397Z,2.33
2018-12-23T09:31:58.611Z,2.70
2018-12-23T09:34:28.169Z,3.00
2018-12-23T09:36:57.737Z,2.77
2018-12-23T09:39:27.609Z,3.13
2018-12-23T09:41:58.119Z,3.10
2018-12-23T09:44:27.687Z,2.90
2018-12-23T09:46:57.290Z,3.87
2018-12-23T09:49:26.754Z,4.57
2018-12-23T09:51:56.259Z,3.37
2018-12-23T09:54:26.347Z,3.53
2018-12-23T09:57:08.174Z,4.07
2018-12-23T09:59:38.685Z,3.73
2018-12-23T10:02:09.132Z,4.13
2018-12-23T10:04:39.111Z,3.77
2018-12-23T10:07:09.197Z,3.90
2018-12-23T10:09:39.222Z,3.80
2018-12-23T10:12:09.289Z,3.13
2018-12-23T10:14:39.556Z,3.20
2018-12-23T10:17:09.727Z,3.27
2018-12-23T10:19:40.250Z,3.07
2018-12-23T10:22:10.287Z,3.60
2018-12-23T10:24:40.167Z,3.20
2018-12-23T10:27:09.927Z,2.87
2018-12-23T10:29:40.009Z,2.97
2018-12-23T10:32:11.309Z,3.63
2018-12-23T10:34:41.739Z,3.73
2018-12-23T10:37:11.895Z,3.43
2018-12-23T10:39:42.010Z,3.07
2018-12-23T10:42:12.342Z,3.47
2018-12-23T10:44:42.369Z,2.87
2018-12-23T10:47:13.698Z,2.50
2018-12-23T10:49:43.724Z,3.47
2018-12-23T10:52:13.973Z,2.30
2018-12-23T10:54:44.528Z,3.30
2018-12-23T10:57:15.315Z,2.77
2018-12-23T10:59:44.972Z,2.90
2018-12-23T11:02:15.434Z,2.60
2018-12-23T11:04:45.558Z,3.43
2018-12-23T11:07:16.018Z,2.50
2018-12-23T11:09:46.511Z,2.90
2018-12-23T11:12:17.089Z,3.20
2018-12-23T11:14:47.766Z,3.07
2018-12-23T11:17:18.766Z,3.93
2018-12-23T11:19:49.368Z,3.60
2018-12-23T11:22:20.481Z,3.40
2018-12-23T11:24:50.749Z,3.57
2018-12-23T11:27:20.473Z,2.37
2018-12-23T11:30:20.018Z,3.07
2018-12-23T11:32:50.406Z,3.10
2018-12-23T11:35:20.585Z,3.67
2018-12-23T11:37:50.759Z,2.80
2018-12-23T11:40:26.864Z,2.77
2018-12-23T11:43:11.905Z,2.80
2018-12-23T11:45:43.021Z,2.70
2018-12-23T11:48:13.104Z,3.40
2018-12-23T11:50:43.642Z,3.37
2018-12-23T11:53:13.502Z,3.57
2018-12-23T11:55:43.907Z,4.30
2018-12-23T11:58:13.888Z,3.90
2018-12-23T12:00:43.995Z,4.10
2018-12-23T12:03:15.063Z,3.30
2018-12-23T12:05:48.233Z,4.17
2018-12-23T12:08:18.343Z,3.43
2018-12-23T12:10:48.222Z,3.70
2018-12-23T12:13:19.626Z,2.63
2018-12-23T12:15:49.913Z,2.90
2018-12-23T12:18:19.958Z,3.73
2018-12-23T12:20:49.993Z,2.50
2018-12-23T12:23:19.374Z,3.07
2018-12-23T12:25:48.939Z,2.80
2018-12-23T12:28:18.598Z,2.90
2018-12-23T12:30:48.739Z,2.80
2018-12-23T12:33:18.866Z,2.67
2018-12-23T12:35:49.227Z,2.33
2018-12-23T12:38:20.269Z,2.53
2018-12-23T12:40:50.000Z,2.50
2018-12-23T12:43:20.323Z,2.50
2018-12-23T12:45:50.780Z,2.70
2018-12-23T12:48:21.009Z,2.30
2018-12-23T12:50:51.119Z,2.63
2018-12-23T12:53:21.529Z,3.03
2018-12-23T12:55:51.994Z,3.50
2018-12-23T12:58:22.537Z,3.70
2018-12-23T13:00:53.251Z,3.70
2018-12-23T13:03:25.898Z,2.87
2018-12-23T13:05:56.478Z,3.40
2018-12-23T13:08:27.163Z,3.70
2018-12-23T13:10:56.765Z,3.73
2018-12-23T13:13:26.520Z,4.07
2018-12-23T13:15:56.682Z,4.20
2018-12-23T13:18:26.773Z,6.00
2018-12-23T13:20:56.711Z,5.70
2018-12-23T13:23:26.664Z,4.53
2018-12-23T13:25:57.209Z,5.23
2018-12-23T13:28:27.816Z,4.43
2018-12-23T13:30:58.464Z,4.87
2018-12-23T13:33:28.488Z,3.97
2018-12-23T13:35:59.207Z,4.57
2018-12-23T13:38:29.342Z,3.70
2018-12-23T13:41:21.827Z,3.10
2018-12-23T13:44:36.359Z,3.97
2018-12-23T13:47:35.733Z,5.67
2018-12-23T13:50:54.661Z,4.83
2018-12-23T13:54:17.022Z,4.83
2018-12-23T13:57:22.175Z,4.63
2018-12-23T14:00:35.262Z,4.53
2018-12-23T14:03:45.757Z,5.67
2018-12-23T14:07:02.781Z,4.07
2018-12-23T14:10:08.204Z,5.30
2018-12-23T14:12:37.662Z,5.67
2018-12-23T14:15:07.311Z,5.07
2018-12-23T14:17:36.740Z,5.30
2018-12-23T14:20:07.017Z,7.33
2018-12-23T14:22:36.784Z,5.80
2018-12-23T14:25:06.398Z,4.17
2018-12-23T14:27:36.206Z,4.17
2018-12-23T14:30:06.082Z,4.10
2018-12-23T14:32:35.466Z,4.13
2018-12-23T14:35:04.960Z,3.53
2018-12-23T14:37:34.783Z,4.53
2018-12-23T14:40:05.064Z,3.97
2018-12-23T14:42:34.872Z,4.03
2018-12-23T14:45:04.981Z,5.53
2018-12-23T14:47:34.738Z,4.63
2018-12-23T14:50:04.883Z,4.60
2018-12-23T14:52:35.005Z,5.93
2018-12-23T14:55:04.738Z,6.00
2018-12-23T14:57:34.877Z,6.80
2018-12-23T15:00:05.626Z,5.30
2018-12-23T15:02:35.902Z,11.83
2018-12-23T15:05:06.167Z,4.37
2018-12-23T15:07:42.128Z,3.60
2018-12-23T15:10:12.133Z,3.67
2018-12-23T15:12:42.414Z,3.57
2018-12-23T15:15:13.993Z,5.37
2018-12-23T15:17:44.432Z,4.93
2018-12-23T15:20:14.322Z,4.07
2018-12-23T15:22:44.856Z,4.40
2018-12-23T15:25:15.093Z,6.37
2018-12-23T15:27:45.249Z,5.07
2018-12-23T15:30:15.475Z,4.60
2018-12-23T15:32:45.885Z,4.43
2018-12-23T15:35:16.067Z,4.70
2018-12-23T15:37:46.486Z,5.10
2018-12-23T15:40:17.005Z,5.20
2018-12-23T15:42:46.825Z,5.17
2018-12-23T15:45:17.083Z,5.73
2018-12-23T15:47:47.261Z,6.13
2018-12-23T15:50:17.187Z,5.33
2018-12-23T15:52:48.415Z,4.53
2018-12-23T15:55:19.032Z,5.83
2018-12-23T15:57:49.214Z,4.97
2018-12-23T16:00:18.905Z,5.50
2018-12-23T16:02:48.952Z,5.67
2018-12-23T16:05:19.748Z,6.20
2018-12-23T16:07:49.504Z,5.50
2018-12-23T16:10:20.093Z,5.83
2018-12-23T16:12:51.310Z,6.70
2018-12-23T16:15:21.614Z,11.13
2018-12-23T16:17:51.866Z,6.80
2018-12-23T16:20:23.063Z,5.83
2018-12-23T16:22:53.425Z,7.37
2018-12-23T16:25:23.834Z,8.13
2018-12-23T16:27:53.833Z,13.00
2018-12-23T16:30:23.601Z,7.47
2018-12-23T16:32:53.642Z,6.83
2018-12-23T16:35:24.337Z,7.10
2018-12-23T16:37:54.411Z,7.03
2018-12-23T16:40:24.368Z,6.50
2018-12-23T16:42:54.048Z,5.13
2018-12-23T16:45:23.853Z,5.33
2018-12-23T16:47:54.385Z,5.97
2018-12-23T16:50:24.646Z,6.67
2018-12-23T16:52:54.866Z,5.73
2018-12-23T16:55:24.864Z,6.23
2018-12-23T16:57:55.824Z,5.47
2018-12-23T17:00:26.012Z,6.73
2018-12-23T17:02:56.744Z,6.30
2018-12-23T17:05:26.898Z,5.53
2018-12-23T17:07:57.763Z,6.40
2018-12-23T17:10:27.692Z,6.70
2018-12-23T17:12:57.491Z,5.87
2018-12-23T17:15:26.953Z,6.70
2018-12-23T17:17:57.462Z,7.00
2018-12-23T17:20:27.150Z,6.37
2018-12-23T17:22:56.680Z,7.20
2018-12-23T17:25:26.514Z,7.20
2018-12-23T17:27:56.450Z,7.40
2018-12-23T17:30:26.603Z,6.80
2018-12-23T17:32:55.952Z,7.93
2018-12-23T17:35:25.411Z,7.87
2018-12-23T17:37:55.729Z,8.60
2018-12-23T17:40:25.130Z,10.23
2018-12-23T17:42:54.749Z,9.93
2018-12-23T17:45:24.926Z,9.40
2018-12-23T17:47:54.750Z,9.03
2018-12-23T17:50:24.908Z,8.43
2018-12-23T17:52:54.789Z,9.40
2018-12-23T17:55:24.183Z,8.67
2018-12-23T17:57:53.687Z,8.07
2018-12-23T18:00:23.420Z,8.47
2018-12-23T18:02:52.730Z,8.87
2018-12-23T18:05:22.528Z,9.50
2018-12-23T18:07:52.023Z,9.60
2018-12-23T18:10:25.160Z,9.63
2018-12-23T18:12:52.718Z,9.90
2018-12-23T18:15:22.222Z,10.17
2018-12-23T18:17:51.754Z,19.97
2018-12-23T18:20:21.306Z,10.90
2018-12-23T18:22:50.740Z,10.50
2018-12-23T18:25:20.303Z,10.17
2018-12-23T18:27:50.512Z,10.10
2018-12-23T18:30:19.975Z,9.90
2018-12-23T18:32:49.475Z,10.70
2018-12-23T18:35:18.996Z,10.27
2018-12-23T18:37:49.042Z,9.40
2018-12-23T18:40:18.517Z,10.13
2018-12-23T18:42:48.498Z,10.37
2018-12-23T18:45:17.853Z,9.00
2018-12-23T18:47:47.712Z,10.73
2018-12-23T18:50:17.597Z,10.63
2018-12-23T18:52:50.662Z,10.30
2018-12-23T18:55:19.960Z,10.23
2018-12-23T18:57:50.533Z,9.97
2018-12-23T19:00:19.994Z,9.80
2018-12-23T19:02:59.380Z,10.77
2018-12-23T19:05:28.967Z,9.73
2018-12-23T19:08:02.710Z,9.97
2018-12-23T19:11:13.787Z,9.73
2018-12-23T19:14:36.207Z,9.13
2018-12-23T19:17:32.379Z,8.17
2018-12-23T19:20:39.951Z,8.70
2018-12-23T19:23:33.555Z,10.00
2018-12-23T19:26:35.788Z,10.47
2018-12-23T19:30:04.621Z,9.47
2018-12-23T19:33:10.628Z,9.87
2018-12-23T19:36:11.668Z,9.90
2018-12-23T19:39:18.500Z,11.00
2018-12-23T19:42:42.897Z,10.87
2018-12-23T19:45:48.447Z,8.27
2018-12-23T19:48:55.562Z,8.23
2018-12-23T19:51:53.217Z,8.17
2018-12-23T19:54:59.592Z,8.37
2018-12-23T19:58:05.816Z,7.37
2018-12-23T20:01:09.927Z,7.13
2018-12-23T20:04:23.386Z,7.83
2018-12-23T20:07:45.829Z,6.97
2018-12-23T20:10:59.001Z,5.90
2018-12-23T20:13:52.016Z,5.50
2018-12-23T20:17:05.089Z,6.03
2018-12-23T20:20:15.543Z,5.47
2018-12-23T20:23:31.576Z,5.77
2018-12-23T20:26:39.445Z,5.60
2018-12-23T20:29:53.095Z,5.67
2018-12-23T20:32:40.157Z,5.40
2018-12-23T20:35:37.359Z,5.37
2018-12-23T20:38:35.955Z,5.17
2018-12-23T20:41:48.233Z,5.57
2018-12-23T20:45:12.977Z,5.83
2018-12-23T20:48:26.985Z,5.90
2018-12-23T20:51:44.421Z,5.03
2018-12-23T20:54:52.314Z,5.17
2018-12-23T20:57:49.274Z,5.27
2018-12-23T21:01:13.592Z,5.43
2018-12-23T21:04:10.516Z,5.47
2018-12-23T21:07:16.444Z,5.53
2018-12-23T21:10:06.955Z,4.10
2018-12-23T21:13:23.490Z,2.77
2018-12-23T21:16:29.695Z,2.60
2018-12-23T21:19:50.781Z,3.60
2018-12-23T21:23:07.748Z,7.13
2018-12-23T21:26:15.518Z,5.53
2018-12-23T21:29:05.927Z,4.30
2018-12-23T21:32:05.085Z,4.47
2018-12-23T21:35:33.842Z,4.60
2018-12-23T21:38:52.255Z,4.63
2018-12-23T21:42:05.039Z,4.57
2018-12-23T21:45:10.749Z,5.07
2018-12-23T21:48:13.886Z,5.23
2018-12-23T21:51:05.530Z,5.60
2018-12-23T21:54:26.742Z,5.10
2018-12-23T21:57:45.512Z,5.27
2018-12-23T22:00:57.949Z,5.53
2018-12-23T22:04:03.132Z,5.20
2018-12-23T22:07:15.828Z,5.27
2018-12-23T22:10:13.336Z,5.50
2018-12-23T22:13:19.660Z,5.93
2018-12-23T22:15:49.051Z,5.50
2018-12-23T22:18:18.805Z,5.07
2018-12-23T22:20:48.537Z,4.63
2018-12-23T22:23:17.931Z,3.90
2018-12-23T22:25:47.646Z,3.20
2018-12-23T22:28:18.155Z,3.13
2018-12-23T22:30:47.982Z,3.20
2018-12-23T22:33:17.646Z,3.03
2018-12-23T22:35:47.175Z,3.00
2018-12-23T22:38:16.901Z,3.97
2018-12-23T22:40:56.982Z,3.23
2018-12-23T22:43:26.979Z,3.30
2018-12-23T22:45:56.519Z,2.97
2018-12-23T22:48:26.318Z,3.20
2018-12-23T22:50:56.326Z,2.80
2018-12-23T22:53:25.748Z,2.47
2018-12-23T22:55:55.481Z,3.00
2018-12-23T22:58:24.881Z,2.80
2018-12-23T23:00:54.454Z,3.27
2018-12-23T23:03:24.544Z,3.00
2018-12-23T23:05:54.214Z,2.80
2018-12-23T23:08:23.846Z,2.50
2018-12-23T23:10:54.097Z,2.30
2018-12-23T23:13:23.674Z,2.03
2018-12-23T23:15:53.093Z,2.50
2018-12-23T23:18:22.381Z,2.90
2018-12-23T23:20:55.164Z,2.93
2018-12-23T23:23:31.654Z,4.10
2018-12-23T23:26:05.999Z,3.70
2018-12-23T23:28:36.088Z,4.47
2018-12-23T23:31:05.561Z,4.37
2018-12-23T23:33:34.950Z,4.63
2018-12-23T23:36:09.032Z,4.83
2018-12-23T23:38:38.862Z,5.00
2018-12-23T23:41:08.277Z,4.83
2018-12-23T23:43:37.563Z,5.20
2018-12-23T23:46:07.622Z,6.40
2018-12-23T23:48:37.012Z,5.53
2018-12-23T23:51:06.446Z,6.57
2018-12-23T23:53:36.135Z,6.00
2018-12-23T23:56:05.551Z,6.17
2018-12-23T23:58:35.363Z,6.27
